createdAt,value
2017-11-30T00:01:05.841Z,2.03
2017-11-30T00:03:31.617Z,2.12
2017-11-30T00:06:01.052Z,2.16
2017-11-30T00:08:26.833Z,2.11
2017-11-30T00:10:55.666Z,2.05
2017-11-30T00:13:21.468Z,1.99
2017-11-30T00:15:50.988Z,1.88
2017-11-30T00:18:16.777Z,1.81
2017-11-30T00:20:45.643Z,1.92
2017-11-30T00:23:11.435Z,1.74
2017-11-30T00:25:37.239Z,1.74
2017-11-30T00:28:03.023Z,1.77
2017-11-30T00:30:28.796Z,1.70
2017-11-30T00:32:56.530Z,1.78
2017-11-30T00:35:22.318Z,1.76
2017-11-30T00:37:52.045Z,1.75
2017-11-30T00:40:17.806Z,1.76
2017-11-30T00:42:56.079Z,1.86
2017-11-30T00:45:22.344Z,1.84
2017-11-30T00:47:48.124Z,1.78
2017-11-30T00:50:13.912Z,1.82
2017-11-30T00:52:39.660Z,1.72
2017-11-30T00:55:05.436Z,1.74
2017-11-30T00:57:31.201Z,1.80
2017-11-30T00:59:56.965Z,1.78
2017-11-30T01:02:22.738Z,1.74
2017-11-30T01:04:48.492Z,1.75
2017-11-30T01:07:14.255Z,1.74
2017-11-30T01:09:41.424Z,1.74
2017-11-30T01:12:07.184Z,1.67
2017-11-30T01:14:35.601Z,1.71
2017-11-30T01:17:01.384Z,1.74
2017-11-30T01:19:27.137Z,1.67
2017-11-30T01:21:56.228Z,1.74
2017-11-30T01:26:52.804Z,1.67
2017-11-30T01:29:20.497Z,1.68
2017-11-30T01:31:46.264Z,1.68
2017-11-30T01:34:15.909Z,1.67
2017-11-30T01:36:41.800Z,1.70
2017-11-30T01:39:07.647Z,1.72
2017-11-30T01:41:33.528Z,1.76
2017-11-30T01:43:59.395Z,1.72
2017-11-30T01:46:28.280Z,1.75
2017-11-30T01:48:54.141Z,1.74
2017-11-30T01:51:21.868Z,1.77
2017-11-30T01:53:47.715Z,1.77
2017-11-30T01:56:16.121Z,1.81
2017-11-30T01:58:41.952Z,1.75
2017-11-30T02:01:12.837Z,1.75
2017-11-30T02:03:38.620Z,1.71
2017-11-30T02:06:05.902Z,1.73
2017-11-30T02:08:31.669Z,1.74
2017-11-30T02:11:00.522Z,1.75
2017-11-30T02:13:26.359Z,1.72
2017-11-30T02:15:52.179Z,1.72
2017-11-30T02:18:18.022Z,1.70
2017-11-30T02:20:43.858Z,1.65
2017-11-30T02:23:13.382Z,1.75
2017-11-30T02:25:39.200Z,1.73
2017-11-30T02:28:06.836Z,1.67
2017-11-30T02:30:32.659Z,1.61
2017-11-30T02:33:01.918Z,1.67
2017-11-30T02:35:27.740Z,1.70
2017-11-30T02:37:55.942Z,1.66
2017-11-30T02:40:21.810Z,1.58
2017-11-30T02:42:54.564Z,1.67
2017-11-30T02:45:20.441Z,1.68
2017-11-30T02:47:46.242Z,1.69
2017-11-30T02:50:12.063Z,1.72
2017-11-30T02:52:37.938Z,1.69
2017-11-30T02:55:03.831Z,1.68
2017-11-30T02:57:29.618Z,1.70
2017-11-30T02:59:58.986Z,1.64
2017-11-30T03:02:24.837Z,1.60
2017-11-30T03:04:52.087Z,1.60
2017-11-30T03:07:17.963Z,1.59
2017-11-30T03:09:47.784Z,1.52
2017-11-30T03:12:13.581Z,1.55
2017-11-30T03:14:42.705Z,1.57
2017-11-30T03:17:08.497Z,1.57
2017-11-30T03:19:36.293Z,1.53
2017-11-30T03:22:02.135Z,1.53
2017-11-30T03:24:31.530Z,1.59
2017-11-30T03:26:57.355Z,1.51
2017-11-30T03:29:23.134Z,1.55
2017-11-30T03:31:49.000Z,1.55
2017-11-30T03:34:14.874Z,1.56
2017-11-30T03:36:44.225Z,1.56
2017-11-30T03:39:10.057Z,1.49
2017-11-30T03:41:39.104Z,1.50
2017-11-30T03:44:04.972Z,1.49
2017-11-30T03:46:32.125Z,1.48
2017-11-30T03:48:57.949Z,1.47
2017-11-30T03:51:28.128Z,1.48
2017-11-30T03:53:53.906Z,1.45
2017-11-30T03:56:23.275Z,1.46
2017-11-30T03:58:49.124Z,1.49
2017-11-30T04:01:16.536Z,1.47
2017-11-30T04:03:42.328Z,1.48
2017-11-30T04:06:08.114Z,1.49
2017-11-30T04:08:34.040Z,1.49
2017-11-30T04:10:59.859Z,1.46
2017-11-30T04:13:29.339Z,1.49
2017-11-30T04:15:55.172Z,1.52
2017-11-30T04:18:22.921Z,1.51
2017-11-30T04:20:48.715Z,1.52
2017-11-30T04:23:19.050Z,1.56
2017-11-30T04:25:44.852Z,1.62
2017-11-30T04:28:12.239Z,1.64
2017-11-30T04:30:38.037Z,1.68
2017-11-30T04:33:08.090Z,1.67
2017-11-30T04:35:33.902Z,1.59
2017-11-30T04:38:01.437Z,1.56
2017-11-30T04:40:27.253Z,1.47
2017-11-30T04:42:53.096Z,1.46
2017-11-30T04:45:18.927Z,1.50
2017-11-30T04:47:44.747Z,1.49
2017-11-30T04:50:13.735Z,1.52
2017-11-30T04:52:39.558Z,1.46
2017-11-30T04:55:08.569Z,1.47
2017-11-30T04:57:34.448Z,1.47
2017-11-30T05:00:04.226Z,1.48
2017-11-30T05:02:30.039Z,1.54
2017-11-30T05:04:57.694Z,1.53
2017-11-30T05:07:23.543Z,1.50
2017-11-30T05:09:52.941Z,1.54
2017-11-30T05:12:18.794Z,1.52
2017-11-30T05:14:48.045Z,1.57
2017-11-30T05:17:13.845Z,1.57
2017-11-30T05:19:39.699Z,1.58
2017-11-30T05:22:05.516Z,1.57
2017-11-30T05:24:31.340Z,1.60
2017-11-30T05:26:59.074Z,1.64
2017-11-30T05:29:24.920Z,1.71
2017-11-30T05:31:54.160Z,1.70
2017-11-30T05:34:19.936Z,1.72
2017-11-30T05:36:49.360Z,1.74
2017-11-30T05:39:15.186Z,1.75
2017-11-30T05:41:42.824Z,1.75
2017-11-30T05:44:08.651Z,1.69
2017-11-30T05:46:37.612Z,1.69
2017-11-30T05:49:03.462Z,1.70
2017-11-30T05:51:32.667Z,1.74
2017-11-30T05:53:58.485Z,1.71
2017-11-30T05:56:24.313Z,1.74
2017-11-30T05:58:50.136Z,1.74
2017-11-30T06:01:15.939Z,1.77
2017-11-30T06:03:43.607Z,1.80
2017-11-30T06:06:09.436Z,1.78
2017-11-30T06:08:38.166Z,1.77
2017-11-30T06:11:04.014Z,1.80
2017-11-30T06:16:00.775Z,1.72
2017-11-30T06:18:28.267Z,1.72
2017-11-30T06:20:54.126Z,1.67
2017-11-30T06:23:22.556Z,1.67
2017-11-30T06:25:48.378Z,1.68
2017-11-30T06:28:17.675Z,1.69
2017-11-30T06:30:43.489Z,1.68
2017-11-30T06:33:09.375Z,1.71
2017-11-30T06:35:35.213Z,1.67
2017-11-30T06:38:01.109Z,1.61
2017-11-30T06:40:28.907Z,1.67
2017-11-30T06:42:54.749Z,1.66
2017-11-30T06:45:27.375Z,1.64
2017-11-30T06:47:53.210Z,1.62
2017-11-30T06:50:19.040Z,1.70
2017-11-30T06:52:44.875Z,1.59
2017-11-30T06:55:14.514Z,1.57
2017-11-30T06:57:40.329Z,1.52
2017-11-30T07:00:08.055Z,1.49
2017-11-30T07:02:33.890Z,1.55
2017-11-30T07:05:02.084Z,1.52
2017-11-30T07:07:27.967Z,1.53
2017-11-30T07:09:53.782Z,1.47
2017-11-30T07:12:19.602Z,1.55
2017-11-30T07:14:45.420Z,1.49
2017-11-30T07:17:14.054Z,1.49
2017-11-30T07:19:39.891Z,1.53
2017-11-30T07:24:36.496Z,1.58
2017-11-30T07:27:05.573Z,1.63
2017-11-30T07:29:31.464Z,1.61
2017-11-30T07:31:58.986Z,1.69
2017-11-30T07:34:24.799Z,1.70
2017-11-30T07:36:54.172Z,1.73
2017-11-30T07:39:20.009Z,1.73
2017-11-30T07:41:49.414Z,1.74
2017-11-30T07:44:15.212Z,1.77
2017-11-30T07:46:41.022Z,1.75
2017-11-30T07:49:06.829Z,1.83
2017-11-30T07:51:32.632Z,1.88
2017-11-30T07:54:00.253Z,1.91
2017-11-30T07:56:26.081Z,2.00
2017-11-30T07:58:54.329Z,2.02
2017-11-30T08:01:20.112Z,2.09
2017-11-30T08:03:49.476Z,2.14
2017-11-30T08:06:15.278Z,2.23
2017-11-30T08:08:44.751Z,2.26
2017-11-30T08:11:10.537Z,2.33
2017-11-30T08:13:40.046Z,2.29
2017-11-30T08:16:05.882Z,2.32
2017-11-30T08:18:34.723Z,2.33
2017-11-30T08:21:00.533Z,2.30
2017-11-30T08:23:26.348Z,2.26
2017-11-30T08:25:52.168Z,2.32
2017-11-30T08:28:18.030Z,2.36
2017-11-30T08:30:45.035Z,2.31
2017-11-30T08:33:10.871Z,2.34
2017-11-30T08:35:40.126Z,2.37
2017-11-30T08:38:05.991Z,2.42
2017-11-30T08:40:34.471Z,2.55
2017-11-30T08:43:00.314Z,2.66
2017-11-30T08:45:28.960Z,2.79
2017-11-30T08:47:54.760Z,2.86
2017-11-30T08:52:51.304Z,2.87
2017-11-30T08:55:18.544Z,2.88
2017-11-30T08:57:44.402Z,2.88
2017-11-30T09:00:10.254Z,2.80
2017-11-30T09:02:36.096Z,2.78
2017-11-30T09:05:01.925Z,2.74
2017-11-30T09:07:30.264Z,2.74
2017-11-30T09:09:56.105Z,2.78
2017-11-30T09:12:25.764Z,2.77
2017-11-30T09:14:51.640Z,2.89
2017-11-30T09:17:20.663Z,2.87
2017-11-30T09:19:46.513Z,2.86
2017-11-30T09:22:14.311Z,2.92
2017-11-30T09:24:40.154Z,2.95
2017-11-30T09:27:09.074Z,2.93
2017-11-30T09:29:34.906Z,2.93
2017-11-30T09:32:04.342Z,2.95
2017-11-30T09:34:30.196Z,3.03
2017-11-30T09:36:56.056Z,3.01
2017-11-30T09:39:21.915Z,3.11
2017-11-30T09:41:47.716Z,3.14
2017-11-30T09:44:15.348Z,3.07
2017-11-30T09:46:41.195Z,3.13
2017-11-30T09:49:10.446Z,3.14
2017-11-30T09:51:36.318Z,3.22
2017-11-30T09:54:06.024Z,3.30
2017-11-30T09:56:31.848Z,3.44
2017-11-30T09:58:59.716Z,3.53
2017-11-30T10:01:25.610Z,3.53
2017-11-30T10:03:54.658Z,3.56
2017-11-30T10:06:20.525Z,3.53
2017-11-30T10:08:49.532Z,3.48
2017-11-30T10:11:15.468Z,3.59
2017-11-30T10:13:41.269Z,3.82
2017-11-30T10:16:07.077Z,3.97
2017-11-30T10:18:32.941Z,3.80
2017-11-30T10:21:00.619Z,3.78
2017-11-30T10:23:27.271Z,3.78
2017-11-30T10:25:56.555Z,3.73
2017-11-30T10:28:22.392Z,3.65
2017-11-30T10:30:51.628Z,3.69
2017-11-30T10:33:17.458Z,3.58
2017-11-30T10:35:46.408Z,3.47
2017-11-30T10:38:13.201Z,3.27
2017-11-30T10:40:39.960Z,3.20
2017-11-30T10:43:05.781Z,3.08
2017-11-30T10:45:35.244Z,2.90
2017-11-30T10:48:01.060Z,2.97
2017-11-30T10:50:26.834Z,3.03
2017-11-30T10:52:52.646Z,3.09
2017-11-30T10:55:18.479Z,3.10
2017-11-30T10:57:46.317Z,3.07
2017-11-30T11:00:12.176Z,2.98
2017-11-30T11:02:40.816Z,3.02
2017-11-30T11:05:06.613Z,3.00
2017-11-30T11:07:36.111Z,3.11
2017-11-30T11:10:01.960Z,3.00
2017-11-30T11:12:31.544Z,3.13
2017-11-30T11:14:57.343Z,4.52
2017-11-30T11:17:25.086Z,5.17
2017-11-30T11:19:50.996Z,5.93
2017-11-30T11:22:20.724Z,6.51
2017-11-30T11:24:46.608Z,6.06
2017-11-30T11:27:12.381Z,5.42
2017-11-30T11:29:38.157Z,4.86
2017-11-30T11:32:04.005Z,4.37
2017-11-30T11:34:31.585Z,4.15
2017-11-30T11:36:57.401Z,4.45
2017-11-30T11:39:26.911Z,4.96
2017-11-30T11:41:52.780Z,4.97
2017-11-30T11:44:22.136Z,4.55
2017-11-30T11:46:47.969Z,4.30
2017-11-30T11:49:15.554Z,4.10
2017-11-30T11:51:41.367Z,3.79
2017-11-30T11:54:09.977Z,3.66
2017-11-30T11:56:35.769Z,3.54
2017-11-30T12:01:32.389Z,3.29
2017-11-30T12:03:58.272Z,3.26
2017-11-30T12:06:24.084Z,3.17
2017-11-30T12:08:49.908Z,3.15
2017-11-30T12:11:16.832Z,3.09
2017-11-30T12:13:42.658Z,2.99
2017-11-30T12:16:11.716Z,2.99
2017-11-30T12:18:37.601Z,3.07
2017-11-30T12:21:06.436Z,3.18
2017-11-30T12:23:32.249Z,3.37
2017-11-30T12:26:00.857Z,3.60
2017-11-30T12:28:26.661Z,3.75
2017-11-30T12:30:53.156Z,3.75
2017-11-30T12:33:21.124Z,3.67
2017-11-30T12:38:17.772Z,3.77
2017-11-30T12:40:43.606Z,3.84
2017-11-30T12:43:09.472Z,3.82
2017-11-30T12:45:35.330Z,3.89
2017-11-30T12:48:02.182Z,3.87
2017-11-30T12:50:27.995Z,3.81
2017-11-30T12:52:57.312Z,3.87
2017-11-30T12:55:23.127Z,3.93
2017-11-30T12:57:52.754Z,3.93
2017-11-30T13:00:18.590Z,3.88
2017-11-30T13:02:46.172Z,3.82
2017-11-30T13:05:12.289Z,3.73
2017-11-30T13:07:41.668Z,3.57
2017-11-30T13:10:07.480Z,3.44
2017-11-30T13:12:36.518Z,3.31
2017-11-30T13:15:02.357Z,3.22
2017-11-30T13:17:28.156Z,3.23
2017-11-30T13:19:54.025Z,3.16
2017-11-30T13:22:19.837Z,3.21
2017-11-30T13:24:47.678Z,3.16
2017-11-30T13:27:13.520Z,3.13
2017-11-30T13:29:42.854Z,3.21
2017-11-30T13:32:08.728Z,3.14
2017-11-30T13:34:38.038Z,3.15
2017-11-30T13:37:03.838Z,3.10
2017-11-30T13:39:31.596Z,3.08
2017-11-30T13:41:57.363Z,3.07
2017-11-30T13:44:25.828Z,3.01
2017-11-30T13:46:51.686Z,3.02
2017-11-30T13:51:48.389Z,3.04
2017-11-30T13:54:14.184Z,3.11
2017-11-30T13:56:39.963Z,3.11
2017-11-30T13:59:05.776Z,3.10
2017-11-30T14:01:33.572Z,3.12
2017-11-30T14:03:59.409Z,3.20
2017-11-30T14:06:27.319Z,3.24
2017-11-30T14:08:53.130Z,3.25
2017-11-30T14:11:19.585Z,3.22
2017-11-30T14:13:45.335Z,3.23
2017-11-30T14:16:11.110Z,3.26
2017-11-30T14:18:40.648Z,3.29
2017-11-30T14:21:06.403Z,3.23
2017-11-30T14:23:35.616Z,3.24
2017-11-30T14:26:01.394Z,3.20
2017-11-30T14:28:28.793Z,3.24
2017-11-30T14:30:54.587Z,3.24
2017-11-30T14:33:24.161Z,3.24
2017-11-30T14:35:49.952Z,3.23
2017-11-30T14:38:19.528Z,3.25
2017-11-30T14:40:45.306Z,3.14
2017-11-30T14:43:12.834Z,3.17
2017-11-30T14:45:38.665Z,3.23
2017-11-30T14:48:09.140Z,3.20
2017-11-30T14:50:34.932Z,3.08
2017-11-30T14:53:02.427Z,3.13
2017-11-30T14:55:28.274Z,3.11
2017-11-30T14:57:57.686Z,3.02
2017-11-30T15:00:23.506Z,2.96
2017-11-30T15:02:53.161Z,2.95
2017-11-30T15:05:18.963Z,2.92
2017-11-30T15:07:44.790Z,2.93
2017-11-30T15:10:10.654Z,2.86
2017-11-30T15:12:36.468Z,2.83
2017-11-30T15:15:03.234Z,2.81
2017-11-30T15:17:29.044Z,2.78
2017-11-30T15:19:58.576Z,2.84
2017-11-30T15:22:24.386Z,2.78
2017-11-30T15:24:52.749Z,2.83
2017-11-30T15:27:18.533Z,2.85
2017-11-30T15:29:47.849Z,2.77
2017-11-30T15:32:13.739Z,2.78
2017-11-30T15:34:42.585Z,2.72
2017-11-30T15:37:08.376Z,2.70
2017-11-30T15:39:37.557Z,2.75
2017-11-30T15:42:03.381Z,2.67
2017-11-30T15:44:29.184Z,2.70
2017-11-30T15:46:55.038Z,2.66
2017-11-30T15:49:20.805Z,2.64
2017-11-30T15:51:48.538Z,2.61
2017-11-30T15:54:14.374Z,2.60
2017-11-30T15:56:43.300Z,2.61
2017-11-30T15:59:09.114Z,2.56
2017-11-30T16:01:39.504Z,2.58
2017-11-30T16:04:05.304Z,2.57
2017-11-30T16:06:32.781Z,2.62
2017-11-30T16:08:58.630Z,2.60
2017-11-30T16:11:27.560Z,2.63
2017-11-30T16:13:53.344Z,2.63
2017-11-30T16:16:22.314Z,2.61
2017-11-30T16:18:48.168Z,2.62
2017-11-30T16:21:14.026Z,2.58
2017-11-30T16:23:39.828Z,2.58
2017-11-30T16:26:05.646Z,2.47
2017-11-30T16:28:34.835Z,2.39
2017-11-30T16:31:00.666Z,2.36
2017-11-30T16:33:30.464Z,2.36
2017-11-30T16:35:56.237Z,2.34
2017-11-30T16:38:23.749Z,2.27
2017-11-30T16:40:49.666Z,2.28
2017-11-30T16:43:18.771Z,2.26
2017-11-30T16:45:44.593Z,2.18
2017-11-30T16:48:12.719Z,2.16
2017-11-30T16:50:38.520Z,2.21
2017-11-30T16:53:07.308Z,2.12
2017-11-30T16:55:33.133Z,2.06
2017-11-30T16:57:58.959Z,2.02
2017-11-30T17:00:24.748Z,1.97
2017-11-30T17:02:50.570Z,2.01
2017-11-30T17:05:19.928Z,2.00
2017-11-30T17:07:45.754Z,1.96
2017-11-30T17:10:13.901Z,2.01
2017-11-30T17:12:39.724Z,1.99
2017-11-30T17:15:08.678Z,2.01
2017-11-30T17:17:34.461Z,2.01
2017-11-30T17:20:03.305Z,2.04
2017-11-30T17:22:29.140Z,2.04
2017-11-30T17:24:58.480Z,2.03
2017-11-30T17:27:24.312Z,2.03
2017-11-30T17:29:53.574Z,2.03
2017-11-30T17:32:19.363Z,2.09
2017-11-30T17:34:45.199Z,2.06
2017-11-30T17:37:11.010Z,2.06
2017-11-30T17:39:37.556Z,2.02
2017-11-30T17:42:05.280Z,2.05
2017-11-30T17:44:31.060Z,2.09
2017-11-30T17:46:59.931Z,2.09
2017-11-30T17:49:25.742Z,2.13
2017-11-30T17:51:55.399Z,2.16
2017-11-30T17:54:21.355Z,2.20
2017-11-30T17:56:49.138Z,2.17
2017-11-30T17:59:14.904Z,2.20
2017-11-30T18:01:43.886Z,2.14
2017-11-30T18:04:10.130Z,2.14
2017-11-30T18:06:39.348Z,2.17
2017-11-30T18:09:05.194Z,2.16
2017-11-30T18:11:30.979Z,2.12
2017-11-30T18:13:56.775Z,2.16
2017-11-30T18:16:22.567Z,2.17
2017-11-30T18:18:50.198Z,2.12
2017-11-30T18:21:16.078Z,2.05
2017-11-30T18:23:45.856Z,2.04
2017-11-30T18:26:11.656Z,2.01
2017-11-30T18:28:39.450Z,2.03
2017-11-30T18:31:05.299Z,1.98
2017-11-30T18:33:34.663Z,1.97
2017-11-30T18:36:00.471Z,1.98
2017-11-30T18:38:30.092Z,2.01
2017-11-30T18:40:55.927Z,1.94
2017-11-30T18:43:23.549Z,1.90
2017-11-30T18:45:49.366Z,1.95
2017-11-30T18:48:15.193Z,1.95
2017-11-30T18:50:41.033Z,1.90
2017-11-30T18:53:06.834Z,1.94
2017-11-30T18:55:36.461Z,2.03
2017-11-30T18:58:02.298Z,2.01
2017-11-30T19:00:29.992Z,1.99
2017-11-30T19:02:55.828Z,1.98
2017-11-30T19:05:25.125Z,1.93
2017-11-30T19:07:50.952Z,1.91
2017-11-30T19:10:19.276Z,1.97
2017-11-30T19:12:45.097Z,1.95
2017-11-30T19:15:14.528Z,1.90
2017-11-30T19:17:40.437Z,1.89
2017-11-30T19:20:10.211Z,1.84
2017-11-30T19:22:36.334Z,1.84
2017-11-30T19:25:02.183Z,1.83
2017-11-30T19:27:27.999Z,1.78
2017-11-30T19:29:53.806Z,1.79
2017-11-30T19:32:21.153Z,1.81
2017-11-30T19:34:46.982Z,1.78
2017-11-30T19:37:16.370Z,1.78
2017-11-30T19:39:42.275Z,1.78
2017-11-30T19:42:09.978Z,1.79
2017-11-30T19:44:35.913Z,1.74
2017-11-30T19:47:06.055Z,1.75
2017-11-30T19:49:31.839Z,1.79
2017-11-30T19:51:59.564Z,1.75
2017-11-30T19:54:25.331Z,1.72
2017-11-30T19:56:55.583Z,1.66
2017-11-30T19:59:21.593Z,1.69
2017-11-30T20:01:47.431Z,1.69
2017-11-30T20:04:13.248Z,1.68
2017-11-30T20:06:39.035Z,1.65
2017-11-30T20:09:06.586Z,1.64
2017-11-30T20:11:32.373Z,1.59
2017-11-30T20:14:02.118Z,1.56
2017-11-30T20:16:27.897Z,1.60
2017-11-30T20:18:55.134Z,1.59
2017-11-30T20:21:20.986Z,1.59
2017-11-30T20:23:50.294Z,1.54
2017-11-30T20:26:16.156Z,1.57
2017-11-30T20:28:45.648Z,1.58
2017-11-30T20:31:11.430Z,1.61
2017-11-30T20:33:41.096Z,1.49
2017-11-30T20:36:06.863Z,1.46
2017-11-30T20:38:32.670Z,1.41
2017-11-30T20:40:58.477Z,1.38
2017-11-30T20:43:24.338Z,1.28
2017-11-30T20:45:51.183Z,1.24
2017-11-30T20:48:17.000Z,1.23
2017-11-30T20:50:46.247Z,1.21
2017-11-30T20:53:12.048Z,1.26
2017-11-30T20:55:40.927Z,1.17
2017-11-30T20:58:06.766Z,1.13
2017-11-30T21:00:35.641Z,1.13
2017-11-30T21:03:01.467Z,1.06
2017-11-30T21:05:30.901Z,1.07
2017-11-30T21:07:56.691Z,0.99
2017-11-30T21:10:26.138Z,0.95
2017-11-30T21:12:51.974Z,0.90
2017-11-30T21:15:17.791Z,0.88
2017-11-30T21:17:43.701Z,0.91
2017-11-30T21:20:09.515Z,0.90
2017-11-30T21:22:36.818Z,0.85
2017-11-30T21:25:02.596Z,0.85
2017-11-30T21:27:32.385Z,0.82
2017-11-30T21:29:58.223Z,0.81
2017-11-30T21:32:27.445Z,0.84
2017-11-30T21:34:53.285Z,0.85
2017-11-30T21:37:20.812Z,0.84
2017-11-30T21:39:46.639Z,0.85
2017-11-30T21:42:16.020Z,0.86
2017-11-30T21:44:41.792Z,0.84
2017-11-30T21:47:11.349Z,0.86
2017-11-30T21:49:37.114Z,0.89
2017-11-30T21:52:02.973Z,0.89
2017-11-30T21:54:28.774Z,0.83
2017-11-30T21:56:54.593Z,0.87
2017-11-30T21:59:22.113Z,0.89
2017-11-30T22:01:47.936Z,0.87
2017-11-30T22:04:16.820Z,0.90
2017-11-30T22:06:42.641Z,0.80
2017-11-30T22:09:11.939Z,0.85
2017-11-30T22:11:37.758Z,0.87
2017-11-30T22:14:05.722Z,0.91
2017-11-30T22:16:31.521Z,0.93
2017-11-30T22:21:28.069Z,0.88
2017-11-30T22:23:55.792Z,0.87
2017-11-30T22:26:21.590Z,0.87
2017-11-30T22:28:47.398Z,0.85
2017-11-30T22:31:13.208Z,0.74
2017-11-30T22:33:39.038Z,0.72
2017-11-30T22:36:06.825Z,0.77
2017-11-30T22:38:32.609Z,0.79
2017-11-30T22:41:01.285Z,0.86
2017-11-30T22:43:27.100Z,0.98
2017-11-30T22:48:23.772Z,0.94
2017-11-30T22:50:51.535Z,0.93
2017-11-30T22:53:17.312Z,0.91
2017-11-30T22:55:46.891Z,0.15
2017-11-30T22:58:12.694Z,0.88
2017-11-30T23:00:42.115Z,0.91
2017-11-30T23:03:07.937Z,0.98
2017-11-30T23:05:33.796Z,0.99
2017-11-30T23:07:59.609Z,0.98
2017-11-30T23:10:25.432Z,0.99
2017-11-30T23:12:52.481Z,0.97
2017-11-30T23:15:18.306Z,0.90
2017-11-30T23:17:47.107Z,0.87
2017-11-30T23:20:12.917Z,0.86
2017-11-30T23:22:41.541Z,0.84
2017-11-30T23:25:07.346Z,0.83
2017-11-30T23:30:04.022Z,0.84
2017-11-30T23:32:31.643Z,0.87
2017-11-30T23:34:57.420Z,0.94
2017-11-30T23:37:26.819Z,0.81
2017-11-30T23:39:52.661Z,0.93
2017-11-30T23:42:18.502Z,1.00
2017-11-30T23:44:44.349Z,1.04
2017-11-30T23:47:10.160Z,1.08
2017-11-30T23:49:37.569Z,1.18
2017-11-30T23:52:03.398Z,1.24
2017-11-30T23:54:33.083Z,1.22
2017-11-30T23:56:58.903Z,1.19
2017-11-30T23:59:28.426Z,1.25
